Time;durP1;ratioP1;P1;durP2;ratioP2;P2;SDS_P1;SDS_P2;PMS_P1;PMS_P2;Temp;Humidity;BMP_temperature;BMP_pressure;BME280_temperature;BME280_humidity;BME280_pressure;Samples;Min_cycle;Max_cycle;Signal;HPM_P1;HPM_P2
2023/02/15 00:00:18;;;;;;;6.03;2.88;;;;;;;0.03;52.39;102953.06;4968855;28;20121;-81
2023/02/15 00:02:46;;;;;;;6.65;3.05;;;;;;;-0.16;52.93;102956.66;4967063;28;21341;-80
2023/02/15 00:05:11;;;;;;;8.20;3.92;;;;;;;-0.33;52.84;102956.00;4951715;28;20507;-80
2023/02/15 00:07:41;;;;;;;7.40;4.38;;;;;;;-0.44;53.07;102949.56;4963423;28;20152;-68
2023/02/15 00:10:17;;;;;;;14.38;6.38;;;;;;;-0.46;53.80;102949.53;4954250;28;20875;-69
2023/02/15 00:12:45;;;;;;;11.15;5.18;;;;;;;-0.38;53.90;102948.09;4951255;28;20133;-73
2023/02/15 00:15:13;;;;;;;13.82;5.78;;;;;;;-0.40;53.34;102951.44;4955836;28;20053;-74
2023/02/15 00:17:41;;;;;;;15.65;6.35;;;;;;;-0.53;53.91;102949.19;4948034;28;20656;-73
2023/02/15 00:20:09;;;;;;;14.07;6.85;;;;;;;-0.53;54.64;102949.19;4953699;28;20070;-72
2023/02/15 00:22:40;;;;;;;12.15;7.35;;;;;;;-0.50;54.79;102939.03;4942663;28;20723;-73
2023/02/15 00:25:09;;;;;;;18.52;6.43;;;;;;;-0.56;54.47;102934.56;4956365;28;20104;-67
2023/02/15 00:27:36;;;;;;;17.35;6.18;;;;;;;-0.49;54.34;102931.41;4949365;28;20611;-69
2023/02/15 00:30:02;;;;;;;16.58;7.30;;;;;;;-0.46;54.50;102933.22;4965460;28;20129;-69
2023/02/15 00:32:32;;;;;;;12.85;5.65;;;;;;;-0.37;54.13;102933.56;4956646;28;20029;-70
2023/02/15 00:35:03;;;;;;;11.02;6.22;;;;;;;-0.35;54.18;102926.78;4940725;28;20046;-69
2023/02/15 00:37:31;;;;;;;14.43;6.15;;;;;;;-0.30;53.88;102925.28;4936168;28;20406;-70
2023/02/15 00:40:00;;;;;;;12.73;6.05;;;;;;;-0.45;53.96;102928.13;4949666;28;20044;-72
2023/02/15 00:42:40;;;;;;;13.48;6.75;;;;;;;-0.34;53.76;102926.00;4946637;28;20415;-73
2023/02/15 00:45:09;;;;;;;11.45;5.00;;;;;;;-0.39;53.36;102922.38;4942281;28;20070;-72
2023/02/15 00:47:34;;;;;;;11.05;5.50;;;;;;;-0.45;53.46;102917.00;4950647;28;20491;-72
2023/02/15 00:50:10;;;;;;;;;;;;;;;;;;;;;
2023/02/15 00:52:36;;;;;;;10.88;5.82;;;;;;;-0.80;53.44;102913.91;4948327;28;20082;-70
2023/02/15 00:55:05;;;;;;;13.38;5.32;;;;;;;-0.74;53.59;102916.72;4950322;28;20056;-70
2023/02/15 00:57:32;;;;;;;10.25;5.20;;;;;;;-0.65;53.75;102911.06;4957105;28;20035;-69
2023/02/15 00:59:58;;;;;;;11.88;5.68;;;;;;;-0.62;53.68;102914.63;4942646;28;20053;-69
2023/02/15 01:02:25;;;;;;;40.22;6.78;;;;;;;-0.64;53.58;102911.16;4965926;28;20035;-70
2023/02/15 01:05:01;;;;;;;11.77;6.38;;;;;;;-0.65;53.52;102911.06;4933879;28;20384;-70
2023/02/15 01:07:31;;;;;;;9.25;5.00;;;;;;;-0.63;53.55;102910.31;4980856;28;20052;-71
2023/02/15 01:10:06;;;;;;;;;;;;;;;-0.60;53.41;102907.84;4954820;28;20150;-70
2023/02/15 01:12:35;;;;;;;9.75;4.97;;;;;;;-0.69;53.36;102910.06;4951123;28;19973;-71
2023/02/15 01:15:05;;;;;;;10.98;5.20;;;;;;;-0.82;53.68;102911.25;4952132;28;20096;-72
2023/02/15 01:17:31;;;;;;;7.50;4.88;;;;;;;-0.80;53.74;102913.91;4937704;28;20566;-74
2023/02/15 01:19:56;;;;;;;9.80;5.60;;;;;;;-0.78;53.69;102904.56;4972999;28;20770;-73
2023/02/15 01:22:22;;;;;;;9.63;4.53;;;;;;;-0.92;53.84;102898.91;4950005;28;20030;-73
2023/02/15 01:24:50;;;;;;;18.00;5.90;;;;;;;-0.99;54.27;102899.47;4949066;28;20863;-73
2023/02/15 01:27:20;;;;;;;16.73;4.90;;;;;;;-1.13;54.44;102900.53;4952459;28;20030;-73
2023/02/15 01:29:48;;;;;;;7.47;5.38;;;;;;;-1.06;54.39;102899.97;4956743;28;20305;-73
2023/02/15 01:32:14;;;;;;;10.93;4.25;;;;;;;-1.16;54.37;102903.88;4983843;28;21032;-73
2023/02/15 01:34:42;;;;;;;15.75;6.20;;;;;;;-1.05;54.48;102904.34;4962177;28;20740;-73
2023/02/15 01:37:12;;;;;;;8.90;5.30;;;;;;;-0.97;54.25;102896.16;4949103;28;20038;-73
2023/02/15 01:39:40;;;;;;;7.72;5.07;;;;;;;-0.92;53.59;102887.75;4971096;28;20701;-73
2023/02/15 01:42:10;;;;;;;8.95;4.85;;;;;;;-1.11;53.82;102888.66;4944259;28;20607;-73
2023/02/15 01:45:01;;;;;;;7.70;5.03;;;;;;;-1.08;53.58;102892.22;4939613;28;20054;-74
2023/02/15 01:47:38;;;;;;;11.43;4.55;;;;;;;-1.24;53.69;102882.13;4948231;28;20035;-73
2023/02/15 01:50:17;;;;;;;12.70;5.85;;;;;;;-1.36;54.32;102874.81;4957026;28;20042;-72
2023/02/15 01:53:10;;;;;;;19.85;6.82;;;;;;;-1.27;54.46;102877.75;4955652;28;20035;-73
2023/02/15 01:55:55;;;;;;;6.88;5.00;;;;;;;-1.17;54.09;102877.34;4951302;28;20136;-71
2023/02/15 01:58:22;;;;;;;10.90;5.65;;;;;;;-1.33;54.00;102872.41;4964101;28;20030;-73
2023/02/15 02:01:04;;;;;;;9.15;5.45;;;;;;;-1.24;54.03;102866.72;4946754;28;20407;-73
2023/02/15 02:04:04;;;;;;;9.18;5.93;;;;;;;-1.35;53.88;102865.41;4962882;28;20263;-72
2023/02/15 02:06:37;;;;;;;9.55;4.95;;;;;;;-1.33;53.99;102869.81;4959563;28;20122;-70
2023/02/15 02:09:13;;;;;;;9.43;5.20;;;;;;;-1.32;53.60;102870.69;4953188;28;20462;-70
2023/02/15 02:11:40;;;;;;;12.25;5.68;;;;;;;-1.28;53.52;102867.44;4943326;28;20141;-70
2023/02/15 02:14:15;;;;;;;13.20;7.53;;;;;;;-1.30;53.73;102857.13;4957378;28;20276;-70
2023/02/15 02:17:06;;;;;;;12.27;6.18;;;;;;;-1.32;53.51;102865.56;4940682;28;20121;-70
2023/02/15 02:19:54;;;;;;;19.80;6.95;;;;;;;-1.45;53.61;102867.59;4970455;28;20039;-71
2023/02/15 02:22:51;;;;;;;8.13;5.93;;;;;;;-1.59;53.75;102861.03;4957526;28;20030;-70
2023/02/15 02:25:47;;;;;;;27.70;7.70;;;;;;;-1.73;54.37;102856.97;4958547;28;20137;-70
2023/02/15 02:28:31;;;;;;;26.20;7.40;;;;;;;-1.82;54.56;102853.25;4955037;28;21040;-70
2023/02/15 02:31:24;;;;;;;7.70;5.55;;;;;;;-1.74;54.49;102850.13;4971306;28;20108;-71
2023/02/15 02:33:56;;;;;;;14.55;7.30;;;;;;;-1.68;54.13;102848.69;4956143;28;20427;-72
2023/02/15 02:36:45;;;;;;;10.63;6.28;;;;;;;-1.87;54.26;102844.44;4946096;28;20771;-70
2023/02/15 02:39:24;;;;;;;8.90;5.93;;;;;;;-1.88;54.84;102842.72;4957035;28;20697;-70
2023/02/15 02:41:57;;;;;;;15.60;5.80;;;;;;;-1.92;54.76;102840.81;4962464;28;20117;-71
2023/02/15 02:44:44;;;;;;;9.57;6.65;;;;;;;-1.71;54.94;102842.53;4964711;28;20046;-74
2023/02/15 02:47:23;;;;;;;8.23;5.70;;;;;;;-1.58;54.62;102837.13;4962520;28;20128;-70
2023/02/15 02:49:52;;;;;;;10.55;7.00;;;;;;;-1.68;54.64;102829.88;4956929;28;20505;-69
2023/02/15 02:52:54;;;;;;;28.33;6.28;;;;;;;-1.52;54.43;102827.13;4973452;28;20396;-72
2023/02/15 02:55:35;;;;;;;6.95;4.53;;;;;;;-1.44;53.66;102830.00;4956389;28;20038;-73
2023/02/15 02:58:13;;;;;;;9.60;5.75;;;;;;;-1.46;53.94;102826.53;4955610;28;20075;-73
2023/02/15 03:00:51;;;;;;;13.80;7.13;;;;;;;-1.28;54.10;102836.66;4976757;28;20043;-72
2023/02/15 03:03:22;;;;;;;13.68;8.15;;;;;;;-1.22;53.91;102826.63;4973628;28;20031;-72
2023/02/15 03:05:53;;;;;;;13.07;7.95;;;;;;;-1.13;53.64;102821.84;4953047;28;20507;-72
2023/02/15 03:08:27;;;;;;;10.02;6.18;;;;;;;-1.21;53.64;102824.13;4960955;28;20038;-72
2023/02/15 03:10:56;;;;;;;9.57;6.25;;;;;;;-1.31;53.75;102816.88;4964394;28;20058;-72
2023/02/15 03:13:27;;;;;;;10.40;6.95;;;;;;;-1.44;53.94;102820.63;4937745;28;20034;-72
2023/02/15 03:18:52;;;;;;;10.95;6.93;;;;;;;-1.39;53.89;102824.25;4932425;28;20307;-72
2023/02/15 03:21:34;;;;;;;19.30;6.90;;;;;;;-1.26;54.09;102819.66;4965122;28;20038;-73
2023/02/15 03:24:09;;;;;;;12.15;7.32;;;;;;;-1.34;54.12;102821.88;4946072;28;20294;-73
2023/02/15 03:26:36;;;;;;;33.45;8.05;;;;;;;-1.48;54.25;102818.75;4950723;28;22495;-73
2023/02/15 03:29:08;;;;;;;22.95;7.78;;;;;;;-1.56;54.37;102809.84;4959867;28;20041;-73
2023/02/15 03:31:38;;;;;;;10.95;6.85;;;;;;;-1.50;54.47;102816.94;4961016;28;20058;-73
2023/02/15 03:34:12;;;;;;;12.80;6.78;;;;;;;-1.49;54.20;102809.28;4939845;28;20542;-73
2023/02/15 03:36:58;;;;;;;11.88;7.55;;;;;;;-1.51;54.27;102808.38;4949057;28;20035;-72
2023/02/15 03:39:46;;;;;;;22.50;6.85;;;;;;;-1.52;54.38;102801.50;4950909;28;20630;-72
2023/02/15 03:42:24;;;;;;;13.60;8.07;;;;;;;-1.50;54.64;102799.88;4954668;28;20038;-74
2023/02/15 03:44:58;;;;;;;35.47;8.57;;;;;;;-1.56;54.45;102803.84;4947570;28;20042;-74
2023/02/15 03:47:29;;;;;;;20.02;7.95;;;;;;;-1.63;54.72;102797.59;4967820;28;20046;-74
2023/02/15 03:51:33;;;;;;;14.67;8.03;;;;;;;-1.65;54.76;102794.09;4951296;28;20049;-75
2023/02/15 03:52:52;;;;;;;10.23;6.55;;;;;;;-1.65;54.63;102794.09;4951479;28;20059;-75
2023/02/15 03:55:23;;;;;;;13.60;7.53;;;;;;;-1.69;54.92;102794.78;4938100;28;20519;-70
2023/02/15 04:03:29;;;;;;;12.25;7.00;;;;;;;-1.77;54.81;102785.91;4984575;28;20053;-72
2023/02/15 04:06:01;;;;;;;8.38;6.32;;;;;;;-1.78;54.46;102773.88;4937440;28;20038;-74
2023/02/15 04:11:17;;;;;;;11.77;7.38;;;;;;;-1.70;54.93;102782.78;4952868;28;20030;-73
2023/02/15 04:13:45;;;;;;;12.27;7.50;;;;;;;-1.54;54.70;102780.03;4951783;28;20499;-73
2023/02/15 04:16:13;;;;;;;11.85;6.47;;;;;;;-1.51;54.59;102784.41;4958451;28;20201;-73
2023/02/15 04:26:57;;;;;;;27.75;8.13;;;;;;;-1.89;54.28;102774.34;4951340;28;20526;-74
2023/02/15 04:29:23;;;;;;;14.60;7.65;;;;;;;-1.96;54.35;102767.16;4951992;28;20161;-74
2023/02/15 04:31:59;;;;;;;15.05;7.57;;;;;;;-1.99;54.48;102777.31;4946720;28;20396;-73
2023/02/15 04:34:28;;;;;;;11.32;6.93;;;;;;;-1.85;54.65;102765.06;4953624;28;20042;-73
2023/02/15 04:36:56;;;;;;;12.30;7.15;;;;;;;-1.98;54.09;102773.03;4965392;28;20042;-73
2023/02/15 04:39:24;;;;;;;32.03;8.18;;;;;;;-2.00;54.61;102770.41;4952158;28;20054;-73
2023/02/15 04:41:59;;;;;;;27.90;7.43;;;;;;;-2.02;54.62;102769.50;4947166;28;20038;-76
2023/02/15 04:44:27;;;;;;;26.77;7.40;;;;;;;-1.91;54.34;102764.78;4952535;28;20037;-72
2023/02/15 04:46:53;;;;;;;12.95;7.80;;;;;;;-1.93;54.43;102768.97;4951837;28;23242;-71
2023/02/15 04:49:18;;;;;;;16.92;6.65;;;;;;;-2.00;54.30;102765.28;4946823;28;20047;-72
2023/02/15 04:51:44;;;;;;;10.32;6.32;;;;;;;-1.94;54.58;102764.69;4948039;28;20139;-71
2023/02/15 04:54:09;;;;;;;12.25;7.55;;;;;;;-1.73;54.43;102757.00;4954536;28;21569;-72
2023/02/15 04:56:44;;;;;;;11.50;6.80;;;;;;;-1.64;54.35;102760.84;4964011;28;20518;-72
2023/02/15 04:59:14;;;;;;;12.15;6.78;;;;;;;-1.72;54.27;102751.06;4967363;28;20879;-71
2023/02/15 05:01:42;;;;;;;10.90;6.47;;;;;;;-1.86;53.58;102747.94;4966021;28;20038;-72
2023/02/15 05:04:07;;;;;;;12.15;7.00;;;;;;;-1.82;54.40;102750.69;4967395;28;20053;-75
2023/02/15 05:06:36;;;;;;;11.15;7.47;;;;;;;-1.73;54.20;102751.88;4947843;28;20034;-73
2023/02/15 05:09:02;;;;;;;13.10;6.97;;;;;;;-1.76;54.11;102739.81;4951219;28;20398;-72
2023/02/15 05:11:27;;;;;;;9.38;6.70;;;;;;;-1.63;54.05;102736.06;4952642;28;20448;-71
2023/02/15 05:13:52;;;;;;;14.18;7.32;;;;;;;-1.66;53.94;102731.69;4947967;28;20890;-71
2023/02/15 05:16:23;;;;;;;11.50;7.45;;;;;;;-1.76;53.75;102729.56;4950343;28;20092;-70
2023/02/15 05:18:51;;;;;;;12.30;7.22;;;;;;;-1.91;53.91;102732.38;4936122;28;20406;-69
2023/02/15 05:21:16;;;;;;;11.30;8.32;;;;;;;-1.99;54.19;102725.19;4971891;28;20093;-69
2023/02/15 05:23:42;;;;;;;16.40;7.25;;;;;;;-2.01;54.08;102712.28;4949963;28;20054;-69
2023/02/15 05:29:00;;;;;;;14.20;7.32;;;;;;;-2.03;54.15;102713.91;4947977;28;20050;-74
2023/02/15 05:31:26;;;;;;;16.20;7.63;;;;;;;-2.07;54.58;102707.81;4957244;28;20034;-69
2023/02/15 05:33:53;;;;;;;9.65;6.25;;;;;;;-2.11;54.24;102713.59;4934968;28;20049;-67
2023/02/15 05:36:21;;;;;;;10.07;6.63;;;;;;;-2.16;54.07;102709.09;4951708;28;20054;-69
2023/02/15 05:38:51;;;;;;;11.00;6.22;;;;;;;-2.22;54.48;102699.47;4981938;28;21030;-71
2023/02/15 05:41:25;;;;;;;11.82;6.63;;;;;;;-2.18;54.64;102708.13;4965443;28;20113;-74
2023/02/15 05:43:56;;;;;;;12.43;7.57;;;;;;;-2.24;54.55;102696.84;4957947;28;20133;-71
2023/02/15 05:46:22;;;;;;;14.20;8.15;;;;;;;-2.19;54.91;102703.84;4947940;28;20042;-77
2023/02/15 05:48:47;;;;;;;13.27;7.70;;;;;;;-1.94;54.80;102704.03;4953828;28;20061;-79
2023/02/15 05:51:16;;;;;;;25.10;7.97;;;;;;;-2.07;54.41;102691.53;4953861;28;20034;-72
2023/02/15 05:53:44;;;;;;;15.23;7.78;;;;;;;-2.12;54.46;102686.22;4950387;28;20046;-73
2023/02/15 05:56:10;;;;;;;14.45;7.80;;;;;;;-2.09;54.63;102695.72;4966478;28;20371;-70
2023/02/15 05:58:39;;;;;;;11.25;7.38;;;;;;;-2.07;54.85;102699.22;4949126;28;20085;-70
2023/02/15 06:01:12;;;;;;;11.25;6.68;;;;;;;-1.97;54.46;102693.69;4949935;28;20436;-70
2023/02/15 06:03:40;;;;;;;13.15;7.20;;;;;;;-1.94;54.51;102688.66;4949006;28;20047;-71
2023/02/15 06:06:09;;;;;;;16.05;8.02;;;;;;;-1.89;54.53;102697.44;4948945;28;20042;-72
2023/02/15 06:08:35;;;;;;;26.55;12.82;;;;;;;-1.83;54.46;102697.66;4948632;28;20038;-70
2023/02/15 06:11:07;;;;;;;22.90;11.68;;;;;;;-1.84;54.31;102695.94;4949519;28;20030;-69
2023/02/15 06:13:38;;;;;;;17.30;9.23;;;;;;;-1.94;54.38;102704.03;4954795;28;20047;-69
2023/02/15 06:16:04;;;;;;;16.85;9.05;;;;;;;-1.82;54.28;102699.44;4950249;28;20404;-69
2023/02/15 06:18:40;;;;;;;55.65;10.63;;;;;;;-1.83;54.45;102687.41;4946555;28;20372;-71
2023/02/15 06:21:13;;;;;;;16.88;9.10;;;;;;;-1.80;54.47;102697.81;4951701;28;20034;-73
2023/02/15 06:23:40;;;;;;;16.63;8.65;;;;;;;-1.80;54.33;102697.81;4929767;28;20054;-69
2023/02/15 06:26:09;;;;;;;16.10;8.70;;;;;;;-1.80;53.99;102702.03;4974889;28;20131;-69
2023/02/15 06:28:37;;;;;;;17.70;8.50;;;;;;;-1.85;54.07;102704.41;4939091;28;20034;-68
2023/02/15 06:31:05;;;;;;;14.95;9.35;;;;;;;-1.90;53.97;102705.91;4955070;28;20030;-69
2023/02/15 06:33:33;;;;;;;18.63;9.07;;;;;;;-1.97;54.42;102697.94;4961125;28;20113;-69
2023/02/15 06:36:09;;;;;;;19.85;9.98;;;;;;;-2.04;54.47;102696.81;4965707;28;20035;-69
2023/02/15 06:38:37;;;;;;;14.93;8.75;;;;;;;-2.07;54.61;102696.66;4950155;28;21799;-69
2023/02/15 06:41:02;;;;;;;17.77;9.68;;;;;;;-1.92;54.59;102702.41;4949853;28;20388;-71
2023/02/15 06:43:28;;;;;;;18.88;8.45;;;;;;;-1.77;54.55;102702.19;4953168;28;20286;-69
2023/02/15 06:45:55;;;;;;;16.98;9.55;;;;;;;-1.82;54.73;102698.56;4950398;28;20034;-69
2023/02/15 06:48:21;;;;;;;14.73;8.52;;;;;;;-1.73;54.73;102698.03;4952488;28;20716;-71
2023/02/15 06:50:48;;;;;;;12.82;8.40;;;;;;;-1.72;55.07;102692.97;4956279;28;20093;-69
2023/02/15 06:53:16;;;;;;;15.25;9.07;;;;;;;-1.55;54.82;102701.34;4951371;28;20042;-69
2023/02/15 06:55:44;;;;;;;16.42;9.48;;;;;;;-1.63;55.03;102692.47;4944922;28;20054;-69
2023/02/15 06:58:14;;;;;;;16.23;9.13;;;;;;;-1.50;54.99;102698.97;4956799;28;20022;-69
2023/02/15 07:00:40;;;;;;;14.38;8.98;;;;;;;-1.35;54.71;102701.22;4975142;28;20080;-69
2023/02/15 07:03:05;;;;;;;16.85;9.15;;;;;;;-1.22;54.54;102693.19;4950539;28;20447;-69
2023/02/15 07:05:35;;;;;;;11.82;7.63;;;;;;;-1.41;53.92;102687.38;4956352;28;20042;-69
2023/02/15 07:08:01;;;;;;;14.68;8.45;;;;;;;-1.33;54.49;102691.91;4954625;28;20118;-69
2023/02/15 07:10:36;;;;;;;16.90;9.30;;;;;;;-1.26;53.95;102689.66;4952940;28;20403;-70
2023/02/15 07:13:02;;;;;;;15.43;9.77;;;;;;;-1.11;54.13;102686.78;4970375;28;20030;-70
2023/02/15 07:15:35;;;;;;;16.55;9.85;;;;;;;-1.03;54.01;102687.13;4945269;28;20053;-70
2023/02/15 07:18:04;;;;;;;15.38;8.73;;;;;;;-1.33;54.46;102686.78;4954200;28;20042;-68
2023/02/15 07:20:35;;;;;;;16.45;9.48;;;;;;;-1.29;54.41;102686.09;4971016;28;20526;-74
2023/02/15 07:23:02;;;;;;;14.50;8.05;;;;;;;-1.02;54.60;102689.75;4957122;28;20034;-73
2023/02/15 07:25:28;;;;;;;14.15;8.88;;;;;;;-0.78;53.99;102682.06;4951528;28;20047;-72
2023/02/15 07:28:00;;;;;;;14.02;9.02;;;;;;;-0.72;52.92;102678.84;4947954;28;20475;-72
2023/02/15 07:30:26;;;;;;;12.70;8.43;;;;;;;-0.73;53.21;102679.66;4947507;28;20313;-76
2023/02/15 07:35:58;;;;;;;15.43;9.38;;;;;;;-0.41;52.85;102679.94;4952409;28;20038;-69
2023/02/15 07:38:32;;;;;;;;;;;;;;;-0.35;52.24;102678.44;4946923;28;20050;-69
2023/02/15 07:41:09;;;;;;;14.65;7.63;;;;;;;-0.50;51.90;102680.47;4982719;28;19918;-69
2023/02/15 07:43:36;;;;;;;12.02;7.93;;;;;;;-0.44;52.11;102687.50;4953983;28;20555;-68
2023/02/15 07:46:12;;;;;;;15.48;9.20;;;;;;;-0.22;52.50;102684.84;4982029;28;20035;-68
2023/02/15 07:48:41;;;;;;;12.55;8.15;;;;;;;0.08;51.41;102684.16;4945598;28;20046;-67
2023/02/15 07:51:11;;;;;;;15.23;7.97;;;;;;;0.46;51.12;102692.22;4949419;28;20097;-66
2023/02/15 07:53:47;;;;;;;17.58;9.57;;;;;;;0.80;50.09;102682.94;4944461;28;20041;-69
2023/02/15 07:56:15;;;;;;;13.68;9.02;;;;;;;1.16;49.96;102684.84;4950879;28;20168;-70
2023/02/15 07:58:52;;;;;;;15.98;9.75;;;;;;;1.15;49.27;102675.34;4959978;28;20581;-68
2023/02/15 08:01:18;;;;;;;16.35;8.80;;;;;;;1.10;49.15;102682.94;4962672;28;20592;-70
2023/02/15 08:03:48;;;;;;;17.35;9.57;;;;;;;1.27;49.33;102675.69;4964456;28;20045;-69
2023/02/15 08:06:17;;;;;;;16.15;9.18;;;;;;;1.96;48.93;102676.69;4968497;28;20042;-68
2023/02/15 08:08:45;;;;;;;16.95;9.13;;;;;;;2.80;46.11;102672.56;4948982;28;20113;-69
2023/02/15 08:11:36;;;;;;;17.02;10.57;;;;;;;3.68;46.31;102672.59;4951836;28;20049;-68
2023/02/15 08:14:07;;;;;;;12.25;7.88;;;;;;;4.73;44.98;102670.75;4954321;28;20049;-68
2023/02/15 08:16:45;;;;;;;14.27;9.05;;;;;;;5.03;40.33;102666.84;4969588;28;20046;-67
2023/02/15 08:19:12;;;;;;;10.73;8.23;;;;;;;4.64;40.80;102668.91;4950930;28;20057;-68
2023/02/15 08:22:05;;;;;;;13.88;9.15;;;;;;;4.31;42.04;102665.84;4947720;28;20034;-70
2023/02/15 08:24:39;;;;;;;14.40;8.20;;;;;;;4.47;41.46;102654.00;4963495;28;20176;-70
2023/02/15 08:27:08;;;;;;;11.13;7.95;;;;;;;4.32;41.51;102652.94;4953553;28;20042;-70
2023/02/15 08:29:35;;;;;;;13.13;8.43;;;;;;;4.27;41.09;102652.00;4950845;28;20758;-70
2023/02/15 08:32:11;;;;;;;11.10;8.20;;;;;;;4.21;41.30;102659.69;4950900;28;20053;-71
2023/02/15 08:34:42;;;;;;;11.15;7.95;;;;;;;4.13;41.62;102650.91;4951396;28;20050;-70
2023/02/15 08:37:12;;;;;;;12.55;8.00;;;;;;;4.14;41.64;102642.28;4950630;28;20577;-71
2023/02/15 08:39:38;;;;;;;15.60;8.68;;;;;;;4.54;41.14;102637.69;4953479;28;20049;-73
2023/02/15 08:42:08;;;;;;;13.98;9.25;;;;;;;5.17;41.06;102626.41;4965003;28;20061;-70
2023/02/15 08:44:36;;;;;;;13.95;8.90;;;;;;;5.90;40.23;102630.53;4933581;28;20120;-71
2023/02/15 08:47:03;;;;;;;19.02;10.07;;;;;;;6.10;39.63;102620.28;4952092;28;20109;-71
2023/02/15 08:49:30;;;;;;;18.60;10.15;;;;;;;6.36;38.78;102625.69;4960472;28;20060;-69
2023/02/15 08:51:59;;;;;;;17.48;9.90;;;;;;;6.35;38.45;102616.16;4957070;28;20467;-72
2023/02/15 08:54:27;;;;;;;15.55;10.30;;;;;;;6.17;39.58;102608.22;4964618;28;20041;-71
2023/02/15 08:57:01;;;;;;;18.52;11.48;;;;;;;6.12;39.98;102600.41;4958571;28;20385;-71
2023/02/15 08:59:29;;;;;;;16.67;10.63;;;;;;;6.53;39.82;102596.31;4947461;28;20298;-71
2023/02/15 09:02:02;;;;;;;16.33;10.63;;;;;;;6.62;39.66;102591.16;4949393;28;20043;-71
2023/02/15 09:04:28;;;;;;;18.92;12.65;;;;;;;6.44;39.17;102592.84;4949889;28;20784;-71
2023/02/15 09:06:57;;;;;;;19.23;12.52;;;;;;;6.74;42.28;102593.81;4949912;28;20031;-71
2023/02/15 09:09:25;;;;;;;19.15;13.07;;;;;;;7.27;40.15;102598.28;4960193;28;20527;-70
2023/02/15 09:11:53;;;;;;;20.58;12.95;;;;;;;7.30;39.04;102603.47;4960519;28;20050;-71
2023/02/15 09:14:26;;;;;;;22.77;12.48;;;;;;;7.58;37.68;102600.94;4943053;28;20042;-71
2023/02/15 09:16:52;;;;;;;19.92;12.50;;;;;;;7.52;40.43;102593.09;4955986;28;20054;-70
2023/02/15 09:19:25;;;;;;;20.95;13.98;;;;;;;7.22;39.13;102586.13;4950759;28;20046;-71
2023/02/15 09:21:51;;;;;;;23.90;14.47;;;;;;;7.66;41.05;102595.72;4931525;28;20039;-71
2023/02/15 09:24:27;;;;;;;25.50;14.30;;;;;;;7.66;39.91;102591.38;4968079;28;20067;-71
2023/02/15 09:26:52;;;;;;;23.02;14.20;;;;;;;7.73;38.64;102587.94;4952222;28;20518;-71
2023/02/15 09:29:22;;;;;;;23.85;14.88;;;;;;;7.58;40.90;102593.16;4931936;28;20042;-73
2023/02/15 09:31:53;;;;;;;27.55;15.93;;;;;;;7.35;40.68;102594.81;4947231;28;20034;-73
2023/02/15 09:34:25;;;;;;;24.25;14.75;;;;;;;5.92;43.39;102599.41;4930484;28;20046;-73
2023/02/15 09:36:53;;;;;;;28.80;16.63;;;;;;;6.80;44.15;102599.03;4936098;28;20054;-73
2023/02/15 09:39:23;;;;;;;27.40;16.65;;;;;;;7.32;41.05;102595.69;4933669;28;20617;-73
2023/02/15 09:41:53;;;;;;;26.83;17.05;;;;;;;6.95;42.42;102592.13;4949667;28;20045;-72
2023/02/15 09:44:43;;;;;;;24.65;15.32;;;;;;;7.39;40.78;102583.56;4956931;28;20042;-72
2023/02/15 09:48:05;;;;;;;28.55;15.40;;;;;;;7.84;41.18;102590.50;4950966;28;20117;-73
2023/02/15 09:50:49;;;;;;;23.67;14.95;;;;;;;7.64;41.08;102587.91;4912447;28;20178;-73
2023/02/15 09:53:33;;;;;;;27.03;15.60;;;;;;;7.94;41.27;102586.16;4912288;28;20038;-73
2023/02/15 09:56:13;;;;;;;25.25;15.52;;;;;;;7.22;41.25;102592.22;4935806;28;21082;-72
2023/02/15 09:58:52;;;;;;;29.05;16.88;;;;;;;7.23;42.16;102585.28;4945951;28;20122;-72
2023/02/15 10:01:36;;;;;;;29.23;16.45;;;;;;;7.68;41.96;102584.44;4947033;28;20286;-72
2023/02/15 10:04:39;;;;;;;25.88;15.48;;;;;;;8.29;40.58;102582.59;4942907;28;20141;-72
2023/02/15 10:07:48;;;;;;;27.52;13.25;;;;;;;7.52;40.25;102587.91;4956402;28;20061;-72
2023/02/15 10:10:45;;;;;;;29.08;15.70;;;;;;;8.12;40.15;102586.13;4952825;28;20046;-71
2023/02/15 10:13:25;;;;;;;28.27;15.35;;;;;;;8.98;39.00;102574.50;4954943;28;20407;-72
2023/02/15 10:16:09;;;;;;;24.23;15.00;;;;;;;9.05;38.18;102577.94;4954073;28;20641;-71
2023/02/15 10:19:04;;;;;;;23.02;14.95;;;;;;;9.25;39.76;102581.25;4942163;28;20038;-72
2023/02/15 10:21:59;;;;;;;27.50;15.48;;;;;;;9.32;38.08;102580.38;4954921;28;20195;-72
2023/02/15 10:24:30;;;;;;;27.35;16.95;;;;;;;8.65;39.91;102580.72;4947810;28;20045;-71
2023/02/15 10:27:04;;;;;;;24.75;16.75;;;;;;;8.94;40.19;102583.19;4955772;28;20042;-72
2023/02/15 10:29:38;;;;;;;25.90;16.55;;;;;;;9.03;38.75;102571.84;4957837;28;20082;-73
2023/02/15 10:32:25;;;;;;;33.45;17.50;;;;;;;8.78;39.82;102582.44;4954229;28;20071;-72
2023/02/15 10:34:53;;;;;;;27.90;17.40;;;;;;;7.99;41.47;102581.81;4954667;28;20093;-72
2023/02/15 10:38:05;;;;;;;29.35;16.58;;;;;;;8.79;39.83;102572.88;4957852;28;20034;-71
2023/02/15 10:40:59;;;;;;;29.85;16.63;;;;;;;9.63;39.52;102574.00;4940146;28;20392;-73
2023/02/15 10:43:46;;;;;;;34.38;17.00;;;;;;;9.40;39.96;102573.31;4948779;28;20046;-71
2023/02/15 10:46:29;;;;;;;26.38;16.13;;;;;;;9.47;39.60;102568.91;4971408;28;20113;-71
2023/02/15 10:49:26;;;;;;;31.25;17.88;;;;;;;10.24;38.77;102560.38;4940990;28;20163;-70
2023/02/15 10:52:22;;;;;;;28.85;17.20;;;;;;;9.56;39.48;102558.41;4958456;28;20186;-73
2023/02/15 10:55:14;;;;;;;30.38;16.63;;;;;;;9.42;39.86;102554.19;4946967;28;20049;-70
2023/02/15 10:57:56;;;;;;;27.77;17.13;;;;;;;9.59;41.02;102553.16;4951415;28;20040;-72
2023/02/15 11:01:08;;;;;;;30.08;16.40;;;;;;;9.96;40.40;102538.91;4936043;28;20053;-71
2023/02/15 11:04:11;;;;;;;32.20;15.90;;;;;;;10.34;39.01;102538.44;4938018;28;20051;-71
2023/02/15 11:06:42;;;;;;;29.80;17.40;;;;;;;10.90;38.64;102538.59;4948516;28;20081;-71
2023/02/15 11:09:22;;;;;;;37.97;19.33;;;;;;;10.94;38.23;102535.03;4951079;28;20352;-71
2023/02/15 11:11:55;;;;;;;32.25;19.23;;;;;;;11.05;36.99;102535.75;4953774;28;20518;-71
2023/02/15 11:14:52;;;;;;;34.50;19.25;;;;;;;10.40;38.33;102527.06;4944484;28;20677;-71
2023/02/15 11:17:26;;;;;;;33.25;18.40;;;;;;;9.51;39.70;102530.63;4955603;28;20081;-70
2023/02/15 11:20:16;;;;;;;31.17;18.63;;;;;;;9.93;41.10;102528.50;4956218;28;20043;-69
2023/02/15 11:22:48;;;;;;;30.05;18.23;;;;;;;10.41;39.42;102526.16;4950066;28;20488;-70
2023/02/15 11:25:22;;;;;;;;;;;;;;;10.17;39.36;102525.59;4941690;28;20505;-70
2023/02/15 11:27:49;;;;;;;35.10;18.02;;;;;;;10.09;39.02;102519.59;4953948;28;20781;-70
2023/02/15 11:30:24;;;;;;;40.38;19.13;;;;;;;9.76;40.17;102513.81;4953208;28;20045;-71
2023/02/15 11:33:18;;;;;;;29.25;18.40;;;;;;;10.60;39.25;102519.81;4953996;28;20394;-70
2023/02/15 11:36:06;;;;;;;33.47;19.35;;;;;;;11.27;38.35;102506.63;4935183;28;20251;-71
2023/02/15 11:38:38;;;;;;;35.88;18.67;;;;;;;11.66;36.62;102515.53;4949298;28;20034;-71
2023/02/15 11:41:18;;;;;;;;;;;;;;;11.40;36.54;102512.50;4954201;28;20034;-69
2023/02/15 11:43:57;;;;;;;30.23;17.73;;;;;;;11.32;37.38;102512.63;4941180;28;20306;-70
2023/02/15 11:46:23;;;;;;;30.75;17.98;;;;;;;11.43;37.31;102508.06;4951037;28;20045;-70
2023/02/15 11:48:51;;;;;;;35.35;19.00;;;;;;;11.21;36.50;102509.31;4946465;28;20045;-69
2023/02/15 11:51:26;;;;;;;33.70;18.35;;;;;;;10.36;38.04;102514.91;4974913;28;20106;-69
2023/02/15 11:54:09;;;;;;;32.22;20.10;;;;;;;11.05;38.20;102508.72;4952332;28;20813;-70
2023/02/15 11:56:40;;;;;;;34.30;19.10;;;;;;;10.53;37.95;102506.84;4947250;28;20035;-69
2023/02/15 11:59:29;;;;;;;38.13;17.60;;;;;;;10.62;37.35;102502.34;4951772;28;20108;-69
2023/02/15 12:02:03;;;;;;;32.75;17.92;;;;;;;11.28;36.15;102494.38;4946335;28;20034;-70
2023/02/15 12:04:39;;;;;;;37.50;19.38;;;;;;;11.02;37.54;102486.09;4949028;28;20529;-69
2023/02/15 12:07:25;;;;;;;;;;;;;;;;;;;;;
2023/02/15 12:10:13;;;;;;;35.97;19.45;;;;;;;11.74;35.55;102470.00;4948219;28;21098;-70
2023/02/15 12:12:43;;;;;;;30.40;18.23;;;;;;;10.69;38.06;102468.28;4949011;28;20035;-70
2023/02/15 12:15:13;;;;;;;36.28;18.80;;;;;;;10.67;37.63;102463.06;4942724;28;20105;-71
2023/02/15 12:17:40;;;;;;;31.90;20.42;;;;;;;10.41;38.76;102460.81;4943388;28;20073;-71